Antlers, Oklahoma
Current Conditions -  °F | °C
As of 5:35 PM on Sunday 21 Dec 2014 (Local Time) from KHHW Reporting Station
Overcast Overcast  
Wind Chill:   Ceiling: 1500
Heat Index:   Visibility: 7mi
Dew Point:   Wind: 8mph
Humidity: 83%   Direction: 170°S
Pressure: 29.88"   Gusts: NA
Location:  34.23°N, 95.62°W
Report Text: KHHW 212335Z AUTO 17007KT 7SM OVC015 09/07 A2988 RMK AO2 T00920065
Loading
Personal Weather Stations






























Interactive Weather Map New forecast layout! Learn more

10-Day Weather Forecast

Advertisements
Track Severe Weather on mobile